TFM - Tactical Decision Aid
ID: Runway Winds: CIG/VIS Threshold:

KDFW - Dallas-Ft Worth Intl, TX, US

Updated at: 1623 UTC 26 Apr 2019
Latest TAF at: 1509 UTC 26 Apr 2019

TAF Board

Time1553Z 26/17Z 26/18Z 26/19Z 26/20Z 26/21Z 26/22Z 26/23Z 27/00Z 27/01Z 27/02Z 27/03Z 27/04Z 27/05Z>>
Type OBS PRVL PRVL PRVL PRVL PRVL PRVL PRVL PRVL PRVL PRVL PRVL PRVL PRVL
VIS 10 >6 >6 >6 >6 >6 >6 >6 >6 >6 >6 >6 >6 >6
CIG -- -- -- -- -- -- -- -- -- -- -- -- -- --
Cover FEW SCT SCT SCT SCT SCT SCT SCT SCT SCT SCT SCT SCT SCT
FltCat VFR VFR VFR VFR VFR VFR VFR VFR VFR VFR VFR VFR VFR VFR
WX -- -- -- -- -- -- -- -- -- -- -- -- -- --
WDir 80 30 30 30 30 30 30 150 150 150 150 150 150 150
WSpd 9 8 8 8 8 8 8 6 6 6 6 6 6 6
WGst -- -- -- -- -- -- -- -- -- -- -- -- -- --

TDA Impact Legend

  None Marginal Slight Moderate High
Visibility (sm) >5 3≤X≤5 1≤X<3 0.5≤X<1 <0.5
Ceiling (100 ft) >30 10≤X≤30 4≤X<10 2≤X<4 <2
Wind Speed (kt) <15 15≤X<25 25≤X<30 ≥30
Wind Gust (kt) <15 15≤X<25 25≤X<35 ≥35
Weather No Wx Reported VCTS -TS,-FZRA TS,FZRA +TS,+FZRA
TAF
KDFW 261509Z 2615/2718 03008KT P6SM SCT150 SCT250
  FM262300 15006KT P6SM SCT120 SCT200
  FM271500 19015KT P6SM SCT050 BKN250


METAR
KDFW 261553Z 08009KT 10SM FEW001 FEW250 22/06 A3020 RMK AO2 SLP219 FU FEW001 W T02170061
KDFW 261453Z 03004KT 10SM CLR 19/09 A3020 RMK AO2 SLP219 T01940089 51018
KDFW 261353Z 02008KT 10SM CLR 18/08 A3019 RMK AO2 SLP217 T01780083

Radar Display
Forecast Discussion